sensor_id;sensor_type;location;lat;lon;timestamp;P1;durP1;ratioP1;P2;durP2;ratioP2
54464;SDS011;40374;49.480;20.016;2022-12-13T00:01:47;12.70;;;3.92;;
54464;SDS011;40374;49.480;20.016;2022-12-13T00:04:17;10.90;;;3.05;;
54464;SDS011;40374;49.480;20.016;2022-12-13T00:06:46;6.75;;;3.22;;
54464;SDS011;40374;49.480;20.016;2022-12-13T00:09:14;10.65;;;4.20;;
54464;SDS011;40374;49.480;20.016;2022-12-13T00:11:43;9.23;;;3.65;;
54464;SDS011;40374;49.480;20.016;2022-12-13T00:14:11;7.78;;;3.47;;
54464;SDS011;40374;49.480;20.016;2022-12-13T00:16:40;9.40;;;3.20;;
54464;SDS011;40374;49.480;20.016;2022-12-13T00:19:12;7.53;;;3.08;;
54464;SDS011;40374;49.480;20.016;2022-12-13T00:21:39;6.43;;;3.05;;
54464;SDS011;40374;49.480;20.016;2022-12-13T00:24:07;10.18;;;3.17;;
54464;SDS011;40374;49.480;20.016;2022-12-13T00:26:35;6.90;;;3.55;;
54464;SDS011;40374;49.480;20.016;2022-12-13T00:29:03;6.80;;;2.85;;
54464;SDS011;40374;49.480;20.016;2022-12-13T00:31:32;13.90;;;3.65;;
54464;SDS011;40374;49.480;20.016;2022-12-13T00:34:20;5.60;;;2.50;;
54464;SDS011;40374;49.480;20.016;2022-12-13T00:36:47;5.80;;;3.10;;
54464;SDS011;40374;49.480;20.016;2022-12-13T00:39:15;10.98;;;2.47;;
54464;SDS011;40374;49.480;20.016;2022-12-13T00:41:45;11.90;;;3.83;;
54464;SDS011;40374;49.480;20.016;2022-12-13T00:44:13;8.35;;;3.15;;
54464;SDS011;40374;49.480;20.016;2022-12-13T00:46:41;6.88;;;2.50;;
54464;SDS011;40374;49.480;20.016;2022-12-13T00:49:09;5.22;;;2.78;;
54464;SDS011;40374;49.480;20.016;2022-12-13T00:51:38;4.95;;;2.10;;
54464;SDS011;40374;49.480;20.016;2022-12-13T00:54:05;6.78;;;2.60;;
54464;SDS011;40374;49.480;20.016;2022-12-13T00:56:33;10.07;;;2.75;;
54464;SDS011;40374;49.480;20.016;2022-12-13T00:59:00;7.10;;;2.25;;
54464;SDS011;40374;49.480;20.016;2022-12-13T01:01:29;6.32;;;2.55;;
54464;SDS011;40374;49.480;20.016;2022-12-13T01:03:59;5.25;;;2.88;;
54464;SDS011;40374;49.480;20.016;2022-12-13T01:06:30;7.05;;;2.72;;
54464;SDS011;40374;49.480;20.016;2022-12-13T01:09:02;6.85;;;2.83;;
54464;SDS011;40374;49.480;20.016;2022-12-13T01:11:31;4.63;;;3.03;;
54464;SDS011;40374;49.480;20.016;2022-12-13T01:13:59;6.43;;;3.15;;
54464;SDS011;40374;49.480;20.016;2022-12-13T01:16:26;8.18;;;2.90;;
54464;SDS011;40374;49.480;20.016;2022-12-13T01:18:55;9.68;;;3.05;;
54464;SDS011;40374;49.480;20.016;2022-12-13T01:21:24;6.93;;;2.70;;
54464;SDS011;40374;49.480;20.016;2022-12-13T01:23:51;7.88;;;3.13;;
54464;SDS011;40374;49.480;20.016;2022-12-13T01:26:19;5.28;;;2.10;;
54464;SDS011;40374;49.480;20.016;2022-12-13T01:28:47;5.72;;;2.78;;
54464;SDS011;40374;49.480;20.016;2022-12-13T01:31:16;5.22;;;2.28;;
54464;SDS011;40374;49.480;20.016;2022-12-13T01:33:45;5.13;;;2.30;;
54464;SDS011;40374;49.480;20.016;2022-12-13T01:36:15;6.40;;;2.55;;
54464;SDS011;40374;49.480;20.016;2022-12-13T01:38:44;5.25;;;2.50;;
54464;SDS011;40374;49.480;20.016;2022-12-13T01:41:17;4.85;;;2.45;;
54464;SDS011;40374;49.480;20.016;2022-12-13T01:43:53;7.03;;;3.22;;
54464;SDS011;40374;49.480;20.016;2022-12-13T01:46:22;6.97;;;2.63;;
54464;SDS011;40374;49.480;20.016;2022-12-13T01:48:52;5.57;;;2.35;;
54464;SDS011;40374;49.480;20.016;2022-12-13T01:51:28;14.13;;;3.05;;
54464;SDS011;40374;49.480;20.016;2022-12-13T01:54:19;6.57;;;2.83;;
54464;SDS011;40374;49.480;20.016;2022-12-13T01:57:00;4.38;;;2.47;;
54464;SDS011;40374;49.480;20.016;2022-12-13T01:59:32;5.22;;;2.95;;
54464;SDS011;40374;49.480;20.016;2022-12-13T02:02:02;5.57;;;2.45;;
54464;SDS011;40374;49.480;20.016;2022-12-13T02:04:35;6.55;;;2.22;;
54464;SDS011;40374;49.480;20.016;2022-12-13T02:07:25;5.30;;;2.03;;
54464;SDS011;40374;49.480;20.016;2022-12-13T02:09:56;9.30;;;3.45;;
54464;SDS011;40374;49.480;20.016;2022-12-13T02:12:28;8.80;;;3.33;;
54464;SDS011;40374;49.480;20.016;2022-12-13T02:15:05;9.23;;;3.38;;
54464;SDS011;40374;49.480;20.016;2022-12-13T02:17:44;7.00;;;3.28;;
54464;SDS011;40374;49.480;20.016;2022-12-13T02:20:24;9.80;;;3.30;;
54464;SDS011;40374;49.480;20.016;2022-12-13T02:23:36;10.98;;;4.28;;
54464;SDS011;40374;49.480;20.016;2022-12-13T02:37:36;7.32;;;2.80;;
54464;SDS011;40374;49.480;20.016;2022-12-13T02:43:05;11.13;;;3.55;;
54464;SDS011;40374;49.480;20.016;2022-12-13T02:45:57;7.15;;;3.05;;
54464;SDS011;40374;49.480;20.016;2022-12-13T02:48:27;8.38;;;3.45;;
54464;SDS011;40374;49.480;20.016;2022-12-13T02:50:59;14.00;;;4.85;;
54464;SDS011;40374;49.480;20.016;2022-12-13T02:53:29;15.88;;;6.25;;
54464;SDS011;40374;49.480;20.016;2022-12-13T02:55:59;9.80;;;4.50;;
54464;SDS011;40374;49.480;20.016;2022-12-13T02:58:28;12.20;;;4.97;;
54464;SDS011;40374;49.480;20.016;2022-12-13T03:17:46;9.05;;;3.83;;
54464;SDS011;40374;49.480;20.016;2022-12-13T03:20:17;14.73;;;5.20;;
54464;SDS011;40374;49.480;20.016;2022-12-13T03:22:51;13.95;;;4.60;;
54464;SDS011;40374;49.480;20.016;2022-12-13T03:25:19;9.77;;;3.50;;
54464;SDS011;40374;49.480;20.016;2022-12-13T03:27:59;6.47;;;3.75;;
54464;SDS011;40374;49.480;20.016;2022-12-13T03:30:29;7.35;;;3.80;;
54464;SDS011;40374;49.480;20.016;2022-12-13T03:32:58;5.95;;;2.97;;
54464;SDS011;40374;49.480;20.016;2022-12-13T03:35:26;11.65;;;4.75;;
54464;SDS011;40374;49.480;20.016;2022-12-13T03:38:01;6.60;;;3.17;;
54464;SDS011;40374;49.480;20.016;2022-12-13T03:40:29;7.80;;;3.85;;
54464;SDS011;40374;49.480;20.016;2022-12-13T03:42:59;9.55;;;3.58;;
54464;SDS011;40374;49.480;20.016;2022-12-13T03:45:27;6.30;;;3.35;;
54464;SDS011;40374;49.480;20.016;2022-12-13T03:47:55;10.18;;;4.35;;
54464;SDS011;40374;49.480;20.016;2022-12-13T03:50:22;12.05;;;5.32;;
54464;SDS011;40374;49.480;20.016;2022-12-13T03:52:57;11.10;;;5.35;;
54464;SDS011;40374;49.480;20.016;2022-12-13T03:55:25;15.20;;;5.72;;
54464;SDS011;40374;49.480;20.016;2022-12-13T03:57:53;17.05;;;6.07;;
54464;SDS011;40374;49.480;20.016;2022-12-13T04:00:21;11.50;;;4.03;;
54464;SDS011;40374;49.480;20.016;2022-12-13T04:02:49;12.25;;;4.60;;
54464;SDS011;40374;49.480;20.016;2022-12-13T04:05:16;13.13;;;5.13;;
54464;SDS011;40374;49.480;20.016;2022-12-13T04:07:44;8.00;;;3.63;;
54464;SDS011;40374;49.480;20.016;2022-12-13T04:10:14;7.25;;;3.22;;
54464;SDS011;40374;49.480;20.016;2022-12-13T04:12:52;11.68;;;4.22;;
54464;SDS011;40374;49.480;20.016;2022-12-13T04:15:39;9.75;;;4.13;;
54464;SDS011;40374;49.480;20.016;2022-12-13T04:18:06;10.77;;;3.45;;
54464;SDS011;40374;49.480;20.016;2022-12-13T04:20:34;7.82;;;3.47;;
54464;SDS011;40374;49.480;20.016;2022-12-13T04:23:02;10.35;;;3.55;;
54464;SDS011;40374;49.480;20.016;2022-12-13T04:25:36;7.03;;;2.88;;
54464;SDS011;40374;49.480;20.016;2022-12-13T04:28:05;9.45;;;3.75;;
54464;SDS011;40374;49.480;20.016;2022-12-13T04:30:33;12.02;;;5.25;;
54464;SDS011;40374;49.480;20.016;2022-12-13T04:33:02;15.32;;;6.57;;
54464;SDS011;40374;49.480;20.016;2022-12-13T04:35:29;12.05;;;5.55;;
54464;SDS011;40374;49.480;20.016;2022-12-13T04:37:57;8.52;;;4.45;;
54464;SDS011;40374;49.480;20.016;2022-12-13T04:40:24;21.75;;;5.68;;
54464;SDS011;40374;49.480;20.016;2022-12-13T04:42:52;13.55;;;4.60;;
54464;SDS011;40374;49.480;20.016;2022-12-13T04:45:20;22.77;;;6.78;;
54464;SDS011;40374;49.480;20.016;2022-12-13T04:47:49;13.18;;;4.95;;
54464;SDS011;40374;49.480;20.016;2022-12-13T04:50:16;12.32;;;4.55;;
54464;SDS011;40374;49.480;20.016;2022-12-13T04:52:45;13.65;;;4.93;;
54464;SDS011;40374;49.480;20.016;2022-12-13T04:55:12;18.95;;;5.93;;
54464;SDS011;40374;49.480;20.016;2022-12-13T04:57:40;18.83;;;7.45;;
54464;SDS011;40374;49.480;20.016;2022-12-13T05:00:09;21.48;;;6.20;;
54464;SDS011;40374;49.480;20.016;2022-12-13T05:02:39;13.60;;;5.30;;
54464;SDS011;40374;49.480;20.016;2022-12-13T05:05:08;13.68;;;5.72;;
54464;SDS011;40374;49.480;20.016;2022-12-13T05:07:36;14.65;;;5.43;;
54464;SDS011;40374;49.480;20.016;2022-12-13T05:10:09;12.27;;;5.38;;
54464;SDS011;40374;49.480;20.016;2022-12-13T05:12:38;15.18;;;5.95;;
54464;SDS011;40374;49.480;20.016;2022-12-13T05:15:05;13.25;;;5.85;;
54464;SDS011;40374;49.480;20.016;2022-12-13T05:17:33;19.80;;;6.65;;
54464;SDS011;40374;49.480;20.016;2022-12-13T05:20:01;27.05;;;8.55;;
54464;SDS011;40374;49.480;20.016;2022-12-13T05:22:28;26.70;;;11.18;;
54464;SDS011;40374;49.480;20.016;2022-12-13T05:24:56;20.92;;;9.25;;
54464;SDS011;40374;49.480;20.016;2022-12-13T05:27:23;24.60;;;7.78;;
54464;SDS011;40374;49.480;20.016;2022-12-13T05:29:53;16.75;;;8.63;;
54464;SDS011;40374;49.480;20.016;2022-12-13T05:32:34;32.03;;;11.80;;
54464;SDS011;40374;49.480;20.016;2022-12-13T05:35:11;33.28;;;12.98;;
54464;SDS011;40374;49.480;20.016;2022-12-13T05:37:40;28.83;;;12.02;;
54464;SDS011;40374;49.480;20.016;2022-12-13T05:40:08;23.17;;;8.73;;
54464;SDS011;40374;49.480;20.016;2022-12-13T05:42:36;24.50;;;10.18;;
54464;SDS011;40374;49.480;20.016;2022-12-13T05:45:06;24.58;;;8.93;;
54464;SDS011;40374;49.480;20.016;2022-12-13T05:47:34;24.13;;;8.95;;
54464;SDS011;40374;49.480;20.016;2022-12-13T05:50:01;22.13;;;7.65;;
54464;SDS011;40374;49.480;20.016;2022-12-13T05:52:29;23.48;;;8.30;;
54464;SDS011;40374;49.480;20.016;2022-12-13T05:54:57;25.63;;;9.45;;
54464;SDS011;40374;49.480;20.016;2022-12-13T05:57:38;29.85;;;10.18;;
54464;SDS011;40374;49.480;20.016;2022-12-13T06:00:06;26.27;;;10.50;;
54464;SDS011;40374;49.480;20.016;2022-12-13T06:02:57;28.63;;;9.82;;
54464;SDS011;40374;49.480;20.016;2022-12-13T06:05:27;34.05;;;12.57;;
54464;SDS011;40374;49.480;20.016;2022-12-13T06:07:56;76.57;;;22.25;;
54464;SDS011;40374;49.480;20.016;2022-12-13T06:10:25;52.35;;;16.55;;
54464;SDS011;40374;49.480;20.016;2022-12-13T06:13:01;42.67;;;14.63;;
54464;SDS011;40374;49.480;20.016;2022-12-13T06:15:50;57.53;;;15.25;;
54464;SDS011;40374;49.480;20.016;2022-12-13T06:18:31;54.80;;;19.42;;
54464;SDS011;40374;49.480;20.016;2022-12-13T06:21:02;42.25;;;11.20;;
54464;SDS011;40374;49.480;20.016;2022-12-13T06:23:32;22.85;;;7.05;;
54464;SDS011;40374;49.480;20.016;2022-12-13T06:26:04;25.33;;;8.48;;
54464;SDS011;40374;49.480;20.016;2022-12-13T06:28:33;27.63;;;9.00;;
54464;SDS011;40374;49.480;20.016;2022-12-13T06:31:00;34.55;;;9.50;;
54464;SDS011;40374;49.480;20.016;2022-12-13T06:33:29;33.25;;;11.82;;
54464;SDS011;40374;49.480;20.016;2022-12-13T06:36:02;32.70;;;11.88;;
54464;SDS011;40374;49.480;20.016;2022-12-13T06:38:31;24.35;;;9.30;;
54464;SDS011;40374;49.480;20.016;2022-12-13T06:41:11;18.55;;;7.97;;
54464;SDS011;40374;49.480;20.016;2022-12-13T06:43:41;20.58;;;7.60;;
54464;SDS011;40374;49.480;20.016;2022-12-13T06:46:09;44.28;;;16.08;;
54464;SDS011;40374;49.480;20.016;2022-12-13T06:48:38;30.48;;;11.60;;
54464;SDS011;40374;49.480;20.016;2022-12-13T06:51:08;42.00;;;16.48;;
54464;SDS011;40374;49.480;20.016;2022-12-13T06:53:37;40.67;;;16.52;;
54464;SDS011;40374;49.480;20.016;2022-12-13T06:56:09;33.70;;;13.40;;
54464;SDS011;40374;49.480;20.016;2022-12-13T06:58:39;36.97;;;15.27;;
54464;SDS011;40374;49.480;20.016;2022-12-13T07:01:08;76.38;;;26.10;;
54464;SDS011;40374;49.480;20.016;2022-12-13T07:03:52;66.80;;;23.10;;
54464;SDS011;40374;49.480;20.016;2022-12-13T07:06:21;96.47;;;32.47;;
54464;SDS011;40374;49.480;20.016;2022-12-13T07:08:54;75.53;;;24.67;;
54464;SDS011;40374;49.480;20.016;2022-12-13T07:11:24;92.03;;;28.88;;
54464;SDS011;40374;49.480;20.016;2022-12-13T07:13:53;103.05;;;32.63;;
54464;SDS011;40374;49.480;20.016;2022-12-13T07:16:22;85.75;;;30.88;;
54464;SDS011;40374;49.480;20.016;2022-12-13T07:18:56;96.25;;;31.27;;
54464;SDS011;40374;49.480;20.016;2022-12-13T07:21:27;63.58;;;23.55;;
54464;SDS011;40374;49.480;20.016;2022-12-13T07:23:56;99.80;;;34.25;;
54464;SDS011;40374;49.480;20.016;2022-12-13T07:26:23;79.15;;;26.88;;
54464;SDS011;40374;49.480;20.016;2022-12-13T07:28:52;66.13;;;22.88;;
54464;SDS011;40374;49.480;20.016;2022-12-13T07:31:21;73.18;;;24.88;;
54464;SDS011;40374;49.480;20.016;2022-12-13T07:33:50;76.10;;;23.13;;
54464;SDS011;40374;49.480;20.016;2022-12-13T07:36:19;77.93;;;25.77;;
54464;SDS011;40374;49.480;20.016;2022-12-13T07:38:51;84.75;;;29.35;;
54464;SDS011;40374;49.480;20.016;2022-12-13T07:41:21;116.70;;;38.85;;
54464;SDS011;40374;49.480;20.016;2022-12-13T07:43:50;151.43;;;49.80;;
54464;SDS011;40374;49.480;20.016;2022-12-13T07:46:21;114.80;;;42.90;;
54464;SDS011;40374;49.480;20.016;2022-12-13T07:49:00;135.40;;;45.80;;
54464;SDS011;40374;49.480;20.016;2022-12-13T07:51:28;165.30;;;53.42;;
54464;SDS011;40374;49.480;20.016;2022-12-13T07:53:56;160.63;;;54.05;;
54464;SDS011;40374;49.480;20.016;2022-12-13T07:56:23;175.98;;;57.65;;
54464;SDS011;40374;49.480;20.016;2022-12-13T07:58:51;149.07;;;49.33;;
54464;SDS011;40374;49.480;20.016;2022-12-13T08:01:18;155.38;;;49.25;;
54464;SDS011;40374;49.480;20.016;2022-12-13T08:03:46;137.45;;;44.58;;
54464;SDS011;40374;49.480;20.016;2022-12-13T08:06:14;135.95;;;46.97;;
54464;SDS011;40374;49.480;20.016;2022-12-13T08:08:42;147.85;;;49.42;;
54464;SDS011;40374;49.480;20.016;2022-12-13T08:11:10;171.70;;;61.60;;
54464;SDS011;40374;49.480;20.016;2022-12-13T08:13:41;206.40;;;62.35;;
54464;SDS011;40374;49.480;20.016;2022-12-13T08:16:09;233.18;;;68.88;;
54464;SDS011;40374;49.480;20.016;2022-12-13T08:18:55;218.87;;;65.27;;
54464;SDS011;40374;49.480;20.016;2022-12-13T08:21:36;205.10;;;59.47;;
54464;SDS011;40374;49.480;20.016;2022-12-13T08:24:28;220.68;;;72.20;;
54464;SDS011;40374;49.480;20.016;2022-12-13T08:26:56;209.07;;;66.68;;
54464;SDS011;40374;49.480;20.016;2022-12-13T08:29:29;181.43;;;60.90;;
54464;SDS011;40374;49.480;20.016;2022-12-13T08:32:02;192.45;;;68.85;;
54464;SDS011;40374;49.480;20.016;2022-12-13T08:34:32;172.45;;;59.53;;
54464;SDS011;40374;49.480;20.016;2022-12-13T08:37:00;143.35;;;50.92;;
54464;SDS011;40374;49.480;20.016;2022-12-13T08:39:31;126.80;;;45.00;;
54464;SDS011;40374;49.480;20.016;2022-12-13T08:42:14;141.38;;;46.17;;
54464;SDS011;40374;49.480;20.016;2022-12-13T08:44:49;105.57;;;36.50;;
54464;SDS011;40374;49.480;20.016;2022-12-13T08:47:19;119.55;;;40.42;;
54464;SDS011;40374;49.480;20.016;2022-12-13T08:49:55;114.35;;;39.60;;
54464;SDS011;40374;49.480;20.016;2022-12-13T08:52:30;111.13;;;38.75;;
54464;SDS011;40374;49.480;20.016;2022-12-13T08:55:11;85.43;;;29.40;;
54464;SDS011;40374;49.480;20.016;2022-12-13T08:57:40;85.43;;;30.52;;
54464;SDS011;40374;49.480;20.016;2022-12-13T09:00:11;77.43;;;30.02;;
54464;SDS011;40374;49.480;20.016;2022-12-13T09:02:40;99.85;;;38.22;;
54464;SDS011;40374;49.480;20.016;2022-12-13T09:05:09;105.32;;;35.38;;
54464;SDS011;40374;49.480;20.016;2022-12-13T09:07:37;107.40;;;35.60;;
54464;SDS011;40374;49.480;20.016;2022-12-13T09:10:09;115.20;;;37.85;;
54464;SDS011;40374;49.480;20.016;2022-12-13T09:12:53;103.32;;;33.38;;
54464;SDS011;40374;49.480;20.016;2022-12-13T09:15:28;91.78;;;31.80;;
54464;SDS011;40374;49.480;20.016;2022-12-13T09:18:01;91.80;;;32.90;;
54464;SDS011;40374;49.480;20.016;2022-12-13T09:20:34;117.78;;;36.70;;
54464;SDS011;40374;49.480;20.016;2022-12-13T09:23:07;91.93;;;28.25;;
54464;SDS011;40374;49.480;20.016;2022-12-13T09:25:53;90.03;;;32.28;;
54464;SDS011;40374;49.480;20.016;2022-12-13T09:28:31;110.03;;;38.35;;
54464;SDS011;40374;49.480;20.016;2022-12-13T09:31:11;129.77;;;44.47;;
54464;SDS011;40374;49.480;20.016;2022-12-13T09:33:41;162.57;;;54.08;;
54464;SDS011;40374;49.480;20.016;2022-12-13T09:36:10;133.23;;;45.17;;
54464;SDS011;40374;49.480;20.016;2022-12-13T09:38:39;110.07;;;40.70;;
54464;SDS011;40374;49.480;20.016;2022-12-13T09:41:13;109.60;;;38.40;;
54464;SDS011;40374;49.480;20.016;2022-12-13T09:43:46;117.40;;;39.70;;
54464;SDS011;40374;49.480;20.016;2022-12-13T09:46:24;119.72;;;45.30;;
54464;SDS011;40374;49.480;20.016;2022-12-13T09:49:56;108.60;;;38.35;;
54464;SDS011;40374;49.480;20.016;2022-12-13T09:52:05;85.30;;;29.52;;
54464;SDS011;40374;49.480;20.016;2022-12-13T09:54:47;90.20;;;28.30;;
54464;SDS011;40374;49.480;20.016;2022-12-13T09:57:18;83.90;;;30.63;;
54464;SDS011;40374;49.480;20.016;2022-12-13T09:59:59;73.28;;;26.33;;
54464;SDS011;40374;49.480;20.016;2022-12-13T10:02:56;68.28;;;27.80;;
54464;SDS011;40374;49.480;20.016;2022-12-13T10:05:28;78.93;;;30.08;;
54464;SDS011;40374;49.480;20.016;2022-12-13T10:08:15;74.95;;;26.77;;
54464;SDS011;40374;49.480;20.016;2022-12-13T10:10:48;76.15;;;25.00;;
54464;SDS011;40374;49.480;20.016;2022-12-13T10:16:16;72.85;;;26.13;;
54464;SDS011;40374;49.480;20.016;2022-12-13T10:22:37;65.68;;;25.77;;
54464;SDS011;40374;49.480;20.016;2022-12-13T10:25:05;70.18;;;25.52;;
54464;SDS011;40374;49.480;20.016;2022-12-13T10:27:37;69.80;;;28.35;;
54464;SDS011;40374;49.480;20.016;2022-12-13T10:33:18;54.58;;;21.83;;
54464;SDS011;40374;49.480;20.016;2022-12-13T10:35:33;51.58;;;21.30;;
54464;SDS011;40374;49.480;20.016;2022-12-13T10:40:35;43.42;;;19.98;;
54464;SDS011;40374;49.480;20.016;2022-12-13T10:45:38;43.95;;;17.65;;
54464;SDS011;40374;49.480;20.016;2022-12-13T10:48:16;46.80;;;18.45;;
54464;SDS011;40374;49.480;20.016;2022-12-13T10:50:54;44.08;;;19.50;;
54464;SDS011;40374;49.480;20.016;2022-12-13T10:53:28;35.13;;;14.48;;
54464;SDS011;40374;49.480;20.016;2022-12-13T10:55:58;46.67;;;18.05;;
54464;SDS011;40374;49.480;20.016;2022-12-13T10:58:35;33.25;;;14.15;;
54464;SDS011;40374;49.480;20.016;2022-12-13T11:01:20;45.80;;;16.88;;
54464;SDS011;40374;49.480;20.016;2022-12-13T11:03:59;38.88;;;15.32;;
54464;SDS011;40374;49.480;20.016;2022-12-13T11:06:47;44.08;;;17.75;;
54464;SDS011;40374;49.480;20.016;2022-12-13T11:09:15;57.05;;;16.92;;
54464;SDS011;40374;49.480;20.016;2022-12-13T11:11:51;44.50;;;14.98;;
54464;SDS011;40374;49.480;20.016;2022-12-13T11:14:25;38.50;;;14.52;;
54464;SDS011;40374;49.480;20.016;2022-12-13T11:17:00;34.70;;;14.20;;
54464;SDS011;40374;49.480;20.016;2022-12-13T11:19:35;50.33;;;16.35;;
54464;SDS011;40374;49.480;20.016;2022-12-13T11:22:07;38.45;;;13.70;;
54464;SDS011;40374;49.480;20.016;2022-12-13T11:24:36;42.30;;;16.23;;
54464;SDS011;40374;49.480;20.016;2022-12-13T11:32:42;79.60;;;32.53;;
54464;SDS011;40374;49.480;20.016;2022-12-13T11:35:30;80.32;;;28.23;;
54464;SDS011;40374;49.480;20.016;2022-12-13T11:40:59;241.82;;;64.70;;
54464;SDS011;40374;49.480;20.016;2022-12-13T11:46:18;40.00;;;16.20;;
54464;SDS011;40374;49.480;20.016;2022-12-13T11:48:54;33.97;;;13.63;;
54464;SDS011;40374;49.480;20.016;2022-12-13T11:51:45;35.67;;;14.13;;
54464;SDS011;40374;49.480;20.016;2022-12-13T11:54:25;25.65;;;9.65;;
54464;SDS011;40374;49.480;20.016;2022-12-13T11:57:20;22.23;;;8.15;;
54464;SDS011;40374;49.480;20.016;2022-12-13T11:59:55;23.50;;;7.32;;
54464;SDS011;40374;49.480;20.016;2022-12-13T12:02:33;14.52;;;6.10;;
54464;SDS011;40374;49.480;20.016;2022-12-13T12:05:04;15.52;;;5.93;;
54464;SDS011;40374;49.480;20.016;2022-12-13T12:07:38;13.02;;;6.13;;
54464;SDS011;40374;49.480;20.016;2022-12-13T12:16:24;27.58;;;10.88;;
54464;SDS011;40374;49.480;20.016;2022-12-13T12:18:54;21.90;;;9.70;;
54464;SDS011;40374;49.480;20.016;2022-12-13T12:27:52;16.63;;;7.60;;
54464;SDS011;40374;49.480;20.016;2022-12-13T12:30:39;21.67;;;7.88;;
54464;SDS011;40374;49.480;20.016;2022-12-13T12:33:29;17.42;;;6.65;;
54464;SDS011;40374;49.480;20.016;2022-12-13T12:39:20;24.48;;;8.85;;
54464;SDS011;40374;49.480;20.016;2022-12-13T12:42:15;16.63;;;6.75;;
